sensor_id;sensor_type;location;lat;lon;timestamp;noise_LAeq;noise_LA_min;noise_LA_max;noise_LA01;noise_LA95
57092;Laerm;42968;52.094;4.328;2023-02-04T00:02:15;61.57;41.22;75.57;;
57092;Laerm;42968;52.094;4.328;2023-02-04T00:04:40;60.48;42.16;72.59;;
57092;Laerm;42968;52.094;4.328;2023-02-04T00:07:05;64.73;41.30;77.99;;
57092;Laerm;42968;52.094;4.328;2023-02-04T00:09:31;61.81;41.38;77.33;;
57092;Laerm;42968;52.094;4.328;2023-02-04T00:11:56;61.52;41.03;73.79;;
57092;Laerm;42968;52.094;4.328;2023-02-04T00:14:21;63.03;42.29;77.91;;
57092;Laerm;42968;52.094;4.328;2023-02-04T00:16:46;63.77;42.03;76.70;;
57092;Laerm;42968;52.094;4.328;2023-02-04T00:19:12;62.95;40.53;78.69;;
57092;Laerm;42968;52.094;4.328;2023-02-04T00:21:38;54.86;39.35;70.97;;
57092;Laerm;42968;52.094;4.328;2023-02-04T00:24:03;59.02;40.33;73.65;;
57092;Laerm;42968;52.094;4.328;2023-02-04T00:26:29;58.48;39.58;73.13;;
57092;Laerm;42968;52.094;4.328;2023-02-04T00:28:54;53.77;38.37;70.73;;
57092;Laerm;42968;52.094;4.328;2023-02-04T00:31:19;62.05;40.13;78.82;;
57092;Laerm;42968;52.094;4.328;2023-02-04T00:33:44;62.10;41.38;75.02;;
57092;Laerm;42968;52.094;4.328;2023-02-04T00:36:10;43.32;38.95;50.35;;
57092;Laerm;42968;52.094;4.328;2023-02-04T00:38:35;57.85;39.58;73.45;;
57092;Laerm;42968;52.094;4.328;2023-02-04T00:41:00;60.01;39.08;73.87;;
57092;Laerm;42968;52.094;4.328;2023-02-04T00:43:26;60.77;39.58;73.93;;
57092;Laerm;42968;52.094;4.328;2023-02-04T00:45:51;41.22;36.45;52.61;;
57092;Laerm;42968;52.094;4.328;2023-02-04T00:48:16;56.95;38.05;80.33;;
57092;Laerm;42968;52.094;4.328;2023-02-04T00:50:41;61.79;39.21;74.89;;
57092;Laerm;42968;52.094;4.328;2023-02-04T00:53:07;54.25;38.95;72.72;;
57092;Laerm;42968;52.094;4.328;2023-02-04T00:55:32;57.50;35.04;73.92;;
57092;Laerm;42968;52.094;4.328;2023-02-04T00:57:58;54.39;36.91;78.92;;
57092;Laerm;42968;52.094;4.328;2023-02-04T01:00:23;62.14;40.13;78.82;;
57092;Laerm;42968;52.094;4.328;2023-02-04T01:02:48;58.55;39.08;74.20;;
57092;Laerm;42968;52.094;4.328;2023-02-04T01:05:13;59.56;38.05;75.34;;
57092;Laerm;42968;52.094;4.328;2023-02-04T01:07:39;56.36;36.91;72.68;;
57092;Laerm;42968;52.094;4.328;2023-02-04T01:10:04;58.05;35.66;75.86;;
57092;Laerm;42968;52.094;4.328;2023-02-04T01:12:29;46.45;38.37;60.29;;
57092;Laerm;42968;52.094;4.328;2023-02-04T01:14:55;60.21;38.52;73.99;;
57092;Laerm;42968;52.094;4.328;2023-02-04T01:17:20;61.03;38.95;73.98;;
57092;Laerm;42968;52.094;4.328;2023-02-04T01:19:46;55.59;37.52;74.60;;
57092;Laerm;42968;52.094;4.328;2023-02-04T01:22:11;60.42;37.32;75.47;;
57092;Laerm;42968;52.094;4.328;2023-02-04T01:24:36;60.63;38.37;74.23;;
57092;Laerm;42968;52.094;4.328;2023-02-04T01:27:02;57.07;38.52;75.52;;
57092;Laerm;42968;52.094;4.328;2023-02-04T01:29:27;59.78;37.52;78.56;;
57092;Laerm;42968;52.094;4.328;2023-02-04T01:31:52;53.01;36.45;69.06;;
57092;Laerm;42968;52.094;4.328;2023-02-04T01:34:18;58.66;37.32;74.37;;
57092;Laerm;42968;52.094;4.328;2023-02-04T01:36:43;49.54;36.69;64.75;;
57092;Laerm;42968;52.094;4.328;2023-02-04T01:39:08;59.46;38.37;74.99;;
57092;Laerm;42968;52.094;4.328;2023-02-04T01:41:33;59.27;36.91;73.99;;
57092;Laerm;42968;52.094;4.328;2023-02-04T01:43:59;42.49;36.69;63.26;;
57092;Laerm;42968;52.094;4.328;2023-02-04T01:46:24;60.52;38.81;74.91;;
57092;Laerm;42968;52.094;4.328;2023-02-04T01:48:49;57.32;36.69;71.53;;
57092;Laerm;42968;52.094;4.328;2023-02-04T01:51:16;56.90;37.32;71.74;;
57092;Laerm;42968;52.094;4.328;2023-02-04T01:53:44;41.83;36.69;49.77;;
57092;Laerm;42968;52.094;4.328;2023-02-04T01:56:16;60.65;38.21;73.11;;
57092;Laerm;42968;52.094;4.328;2023-02-04T01:58:43;75.75;39.21;93.41;;
57092;Laerm;42968;52.094;4.328;2023-02-04T02:01:12;58.59;37.12;77.79;;
57092;Laerm;42968;52.094;4.328;2023-02-04T02:03:38;58.19;38.37;72.79;;
57092;Laerm;42968;52.094;4.328;2023-02-04T02:06:03;42.19;36.69;53.44;;
57092;Laerm;42968;52.094;4.328;2023-02-04T02:08:28;58.78;36.69;79.88;;
57092;Laerm;42968;52.094;4.328;2023-02-04T02:10:53;57.43;39.81;74.45;;
57092;Laerm;42968;52.094;4.328;2023-02-04T02:13:19;55.14;36.20;71.95;;
57092;Laerm;42968;52.094;4.328;2023-02-04T02:15:44;58.46;39.21;74.53;;
57092;Laerm;42968;52.094;4.328;2023-02-04T02:18:10;59.25;37.32;72.10;;
57092;Laerm;42968;52.094;4.328;2023-02-04T02:20:35;52.15;37.12;69.71;;
57092;Laerm;42968;52.094;4.328;2023-02-04T02:25:49;59.34;39.08;73.42;;
57092;Laerm;42968;52.094;4.328;2023-02-04T02:28:17;52.85;36.69;69.15;;
57092;Laerm;42968;52.094;4.328;2023-02-04T02:30:43;59.80;39.34;75.21;;
57092;Laerm;42968;52.094;4.328;2023-02-04T02:33:13;61.15;39.81;79.61;;
57092;Laerm;42968;52.094;4.328;2023-02-04T02:35:40;53.77;36.20;70.49;;
57092;Laerm;42968;52.094;4.328;2023-02-04T02:38:08;64.68;37.70;87.72;;
57092;Laerm;42968;52.094;4.328;2023-02-04T02:40:33;40.63;36.20;45.75;;
57092;Laerm;42968;52.094;4.328;2023-02-04T02:42:58;54.59;37.32;71.17;;
57092;Laerm;42968;52.094;4.328;2023-02-04T02:45:25;56.57;38.95;74.15;;
57092;Laerm;42968;52.094;4.328;2023-02-04T02:47:51;60.03;39.08;73.48;;
57092;Laerm;42968;52.094;4.328;2023-02-04T02:50:18;55.20;38.37;70.93;;
57092;Laerm;42968;52.094;4.328;2023-02-04T02:52:44;56.41;37.12;75.74;;
57092;Laerm;42968;52.094;4.328;2023-02-04T02:55:13;51.25;39.08;67.10;;
57092;Laerm;42968;52.094;4.328;2023-02-04T02:57:40;53.52;38.67;69.66;;
57092;Laerm;42968;52.094;4.328;2023-02-04T03:00:12;54.13;37.52;70.36;;
57092;Laerm;42968;52.094;4.328;2023-02-04T03:02:38;56.19;37.70;74.01;;
57092;Laerm;42968;52.094;4.328;2023-02-04T03:05:03;58.31;38.21;76.14;;
57092;Laerm;42968;52.094;4.328;2023-02-04T03:07:28;61.99;39.34;72.68;;
57092;Laerm;42968;52.094;4.328;2023-02-04T03:09:54;56.45;37.32;73.88;;
57092;Laerm;42968;52.094;4.328;2023-02-04T03:12:19;50.91;36.69;70.69;;
57092;Laerm;42968;52.094;4.328;2023-02-04T03:14:44;40.77;35.94;50.71;;
57092;Laerm;42968;52.094;4.328;2023-02-04T03:17:10;58.19;36.69;74.42;;
57092;Laerm;42968;52.094;4.328;2023-02-04T03:19:35;40.17;36.69;46.13;;
57092;Laerm;42968;52.094;4.328;2023-02-04T03:22:01;40.46;36.69;46.62;;
57092;Laerm;42968;52.094;4.328;2023-02-04T03:24:28;54.23;38.21;71.54;;
57092;Laerm;42968;52.094;4.328;2023-02-04T03:26:53;56.68;40.23;71.37;;
57092;Laerm;42968;52.094;4.328;2023-02-04T03:29:19;42.68;37.70;51.27;;
57092;Laerm;42968;52.094;4.328;2023-02-04T03:31:44;57.68;40.33;69.63;;
57092;Laerm;42968;52.094;4.328;2023-02-04T03:34:09;53.89;36.69;68.53;;
57092;Laerm;42968;52.094;4.328;2023-02-04T03:36:34;52.02;36.69;70.85;;
57092;Laerm;42968;52.094;4.328;2023-02-04T03:39:00;58.17;37.52;77.13;;
57092;Laerm;42968;52.094;4.328;2023-02-04T03:41:26;60.71;39.21;73.17;;
57092;Laerm;42968;52.094;4.328;2023-02-04T03:43:51;40.62;35.94;51.99;;
57092;Laerm;42968;52.094;4.328;2023-02-04T03:46:16;39.91;35.04;47.22;;
57092;Laerm;42968;52.094;4.328;2023-02-04T03:48:42;56.90;37.32;70.41;;
57092;Laerm;42968;52.094;4.328;2023-02-04T03:51:07;59.84;36.91;72.04;;
57092;Laerm;42968;52.094;4.328;2023-02-04T03:53:32;52.54;35.94;69.19;;
57092;Laerm;42968;52.094;4.328;2023-02-04T03:55:57;41.52;36.45;48.51;;
57092;Laerm;42968;52.094;4.328;2023-02-04T03:58:23;55.56;36.20;72.85;;
57092;Laerm;42968;52.094;4.328;2023-02-04T04:00:48;39.62;35.94;44.58;;
57092;Laerm;42968;52.094;4.328;2023-02-04T04:03:13;57.15;35.94;72.39;;
57092;Laerm;42968;52.094;4.328;2023-02-04T04:05:39;52.19;36.20;66.12;;
57092;Laerm;42968;52.094;4.328;2023-02-04T04:08:04;58.04;35.94;74.38;;
57092;Laerm;42968;52.094;4.328;2023-02-04T04:10:29;57.34;36.69;73.02;;
57092;Laerm;42968;52.094;4.328;2023-02-04T04:12:54;58.50;36.45;72.18;;
57092;Laerm;42968;52.094;4.328;2023-02-04T04:15:20;57.29;38.52;75.34;;
57092;Laerm;42968;52.094;4.328;2023-02-04T04:17:45;58.73;36.45;73.39;;
57092;Laerm;42968;52.094;4.328;2023-02-04T04:20:11;60.69;40.03;75.75;;
57092;Laerm;42968;52.094;4.328;2023-02-04T04:22:36;57.10;36.69;74.12;;
57092;Laerm;42968;52.094;4.328;2023-02-04T04:25:01;58.26;37.52;74.70;;
57092;Laerm;42968;52.094;4.328;2023-02-04T04:27:27;58.24;39.70;74.30;;
57092;Laerm;42968;52.094;4.328;2023-02-04T04:29:54;58.72;38.21;74.58;;
57092;Laerm;42968;52.094;4.328;2023-02-04T04:32:19;62.96;41.19;76.98;;
57092;Laerm;42968;52.094;4.328;2023-02-04T04:34:44;65.10;40.80;82.34;;
57092;Laerm;42968;52.094;4.328;2023-02-04T04:37:10;63.61;38.81;77.10;;
57092;Laerm;42968;52.094;4.328;2023-02-04T04:39:35;62.40;41.96;76.15;;
57092;Laerm;42968;52.094;4.328;2023-02-04T04:42:00;61.00;39.70;77.21;;
57092;Laerm;42968;52.094;4.328;2023-02-04T04:44:26;59.48;39.11;74.15;;
57092;Laerm;42968;52.094;4.328;2023-02-04T04:46:51;60.88;37.52;76.24;;
57092;Laerm;42968;52.094;4.328;2023-02-04T04:49:16;45.42;36.69;66.14;;
57092;Laerm;42968;52.094;4.328;2023-02-04T04:51:41;60.44;38.21;77.77;;
57092;Laerm;42968;52.094;4.328;2023-02-04T04:54:07;61.14;36.69;78.54;;
57092;Laerm;42968;52.094;4.328;2023-02-04T04:56:32;56.90;38.95;70.50;;
57092;Laerm;42968;52.094;4.328;2023-02-04T04:58:57;60.06;39.81;76.60;;
57092;Laerm;42968;52.094;4.328;2023-02-04T05:01:23;57.91;36.45;74.20;;
57092;Laerm;42968;52.094;4.328;2023-02-04T05:03:48;52.90;38.37;70.96;;
57092;Laerm;42968;52.094;4.328;2023-02-04T05:06:13;65.06;38.05;77.20;;
57092;Laerm;42968;52.094;4.328;2023-02-04T05:08:39;55.29;36.45;73.47;;
57092;Laerm;42968;52.094;4.328;2023-02-04T05:11:04;60.94;38.52;75.37;;
57092;Laerm;42968;52.094;4.328;2023-02-04T05:13:29;67.59;44.51;81.24;;
57092;Laerm;42968;52.094;4.328;2023-02-04T05:15:55;61.33;38.05;76.51;;
57092;Laerm;42968;52.094;4.328;2023-02-04T05:18:20;62.86;40.53;78.84;;
57092;Laerm;42968;52.094;4.328;2023-02-04T05:20:45;63.05;39.21;77.21;;
57092;Laerm;42968;52.094;4.328;2023-02-04T05:23:11;61.86;40.53;76.15;;
57092;Laerm;42968;52.094;4.328;2023-02-04T05:25:36;59.76;38.52;75.68;;
57092;Laerm;42968;52.094;4.328;2023-02-04T05:28:02;63.18;38.95;78.00;;
57092;Laerm;42968;52.094;4.328;2023-02-04T05:30:27;56.73;40.23;74.91;;
57092;Laerm;42968;52.094;4.328;2023-02-04T05:32:52;65.89;45.11;81.21;;
57092;Laerm;42968;52.094;4.328;2023-02-04T05:35:18;68.22;41.61;85.76;;
57092;Laerm;42968;52.094;4.328;2023-02-04T05:37:43;63.89;41.22;74.64;;
57092;Laerm;42968;52.094;4.328;2023-02-04T05:40:08;62.98;44.43;77.30;;
57092;Laerm;42968;52.094;4.328;2023-02-04T05:42:34;59.39;40.89;73.07;;
57092;Laerm;42968;52.094;4.328;2023-02-04T05:44:59;62.92;42.71;77.43;;
57092;Laerm;42968;52.094;4.328;2023-02-04T05:47:24;65.31;44.19;79.29;;
57092;Laerm;42968;52.094;4.328;2023-02-04T05:49:49;63.26;41.30;77.27;;
57092;Laerm;42968;52.094;4.328;2023-02-04T05:52:15;65.20;43.94;80.70;;
57092;Laerm;42968;52.094;4.328;2023-02-04T05:54:40;64.69;41.53;77.05;;
57092;Laerm;42968;52.094;4.328;2023-02-04T05:57:05;61.63;43.44;72.38;;
57092;Laerm;42968;52.094;4.328;2023-02-04T05:59:31;63.92;44.35;74.90;;
57092;Laerm;42968;52.094;4.328;2023-02-04T06:01:56;60.85;39.58;74.89;;
57092;Laerm;42968;52.094;4.328;2023-02-04T06:04:21;61.70;41.30;73.24;;
57092;Laerm;42968;52.094;4.328;2023-02-04T06:06:47;67.35;41.61;77.51;;
57092;Laerm;42968;52.094;4.328;2023-02-04T06:09:12;59.38;39.58;70.82;;
57092;Laerm;42968;52.094;4.328;2023-02-04T06:11:37;62.00;43.09;75.83;;
57092;Laerm;42968;52.094;4.328;2023-02-04T06:14:02;63.41;43.44;76.43;;
57092;Laerm;42968;52.094;4.328;2023-02-04T06:16:28;65.17;41.46;76.80;;
57092;Laerm;42968;52.094;4.328;2023-02-04T06:18:53;60.51;42.29;75.69;;
57092;Laerm;42968;52.094;4.328;2023-02-04T06:21:18;64.59;43.90;76.73;;
57092;Laerm;42968;52.094;4.328;2023-02-04T06:23:44;64.92;40.62;78.84;;
57092;Laerm;42968;52.094;4.328;2023-02-04T06:26:09;60.94;40.62;75.66;;
57092;Laerm;42968;52.094;4.328;2023-02-04T06:28:35;59.57;38.81;74.02;;
57092;Laerm;42968;52.094;4.328;2023-02-04T06:31:00;62.33;42.35;76.37;;
57092;Laerm;42968;52.094;4.328;2023-02-04T06:33:25;63.47;41.30;76.10;;
57092;Laerm;42968;52.094;4.328;2023-02-04T06:35:50;63.60;45.04;74.56;;
57092;Laerm;42968;52.094;4.328;2023-02-04T06:38:16;65.70;42.88;74.72;;
57092;Laerm;42968;52.094;4.328;2023-02-04T06:40:41;63.80;42.41;77.67;;
57092;Laerm;42968;52.094;4.328;2023-02-04T06:43:07;64.81;44.23;77.20;;
57092;Laerm;42968;52.094;4.328;2023-02-04T06:45:32;63.29;44.23;75.52;;
57092;Laerm;42968;52.094;4.328;2023-02-04T06:47:57;66.24;48.45;75.66;;
57092;Laerm;42968;52.094;4.328;2023-02-04T06:50:22;67.40;45.60;78.64;;
57092;Laerm;42968;52.094;4.328;2023-02-04T06:52:48;66.50;42.88;78.37;;
57092;Laerm;42968;52.094;4.328;2023-02-04T06:55:13;66.45;45.80;77.06;;
57092;Laerm;42968;52.094;4.328;2023-02-04T06:57:39;65.21;50.75;74.57;;
57092;Laerm;42968;52.094;4.328;2023-02-04T07:00:05;67.55;45.51;79.42;;
57092;Laerm;42968;52.094;4.328;2023-02-04T07:02:30;68.54;50.95;82.89;;
57092;Laerm;42968;52.094;4.328;2023-02-04T07:04:56;68.47;49.32;83.30;;
57092;Laerm;42968;52.094;4.328;2023-02-04T07:07:21;66.59;50.95;77.35;;
57092;Laerm;42968;52.094;4.328;2023-02-04T07:09:46;66.38;45.23;79.70;;
57092;Laerm;42968;52.094;4.328;2023-02-04T07:12:12;65.17;48.08;75.26;;
57092;Laerm;42968;52.094;4.328;2023-02-04T07:14:37;65.18;45.54;74.27;;
57092;Laerm;42968;52.094;4.328;2023-02-04T07:17:02;62.59;45.75;73.20;;
57092;Laerm;42968;52.094;4.328;2023-02-04T07:19:27;64.83;47.32;75.08;;
57092;Laerm;42968;52.094;4.328;2023-02-04T07:21:53;67.08;48.55;78.46;;
57092;Laerm;42968;52.094;4.328;2023-02-04T07:24:20;67.28;47.54;80.85;;
57092;Laerm;42968;52.094;4.328;2023-02-04T07:26:46;65.27;46.20;75.42;;
57092;Laerm;42968;52.094;4.328;2023-02-04T07:29:11;62.77;43.90;75.81;;
57092;Laerm;42968;52.094;4.328;2023-02-04T07:31:37;67.45;49.52;77.07;;
57092;Laerm;42968;52.094;4.328;2023-02-04T07:34:02;62.65;45.11;73.34;;
57092;Laerm;42968;52.094;4.328;2023-02-04T07:36:28;63.57;46.07;74.61;;
57092;Laerm;42968;52.094;4.328;2023-02-04T07:38:53;65.96;47.36;78.97;;
57092;Laerm;42968;52.094;4.328;2023-02-04T07:41:18;66.50;45.20;76.36;;
57092;Laerm;42968;52.094;4.328;2023-02-04T07:43:45;65.46;43.63;75.19;;
57092;Laerm;42968;52.094;4.328;2023-02-04T07:46:10;69.53;42.22;86.27;;
57092;Laerm;42968;52.094;4.328;2023-02-04T07:48:35;66.30;46.69;76.12;;
57092;Laerm;42968;52.094;4.328;2023-02-04T07:51:01;69.44;45.89;80.24;;
57092;Laerm;42968;52.094;4.328;2023-02-04T07:53:26;68.53;45.97;77.34;;
57092;Laerm;42968;52.094;4.328;2023-02-04T07:55:51;69.56;44.51;79.92;;
57092;Laerm;42968;52.094;4.328;2023-02-04T07:58:16;68.48;45.23;76.26;;
57092;Laerm;42968;52.094;4.328;2023-02-04T08:00:42;68.15;48.66;76.52;;
57092;Laerm;42968;52.094;4.328;2023-02-04T08:03:07;65.63;44.11;75.57;;
57092;Laerm;42968;52.094;4.328;2023-02-04T08:05:32;67.60;50.27;76.33;;
57092;Laerm;42968;52.094;4.328;2023-02-04T08:07:58;67.47;53.03;78.81;;
57092;Laerm;42968;52.094;4.328;2023-02-04T08:10:24;67.75;48.07;77.28;;
57092;Laerm;42968;52.094;4.328;2023-02-04T08:12:50;69.64;50.74;80.09;;
57092;Laerm;42968;52.094;4.328;2023-02-04T08:15:15;65.62;43.94;76.64;;
57092;Laerm;42968;52.094;4.328;2023-02-04T08:17:40;67.89;45.11;81.41;;
57092;Laerm;42968;52.094;4.328;2023-02-04T08:20:06;66.40;49.10;75.52;;
57092;Laerm;42968;52.094;4.328;2023-02-04T08:22:33;68.36;46.25;77.56;;
57092;Laerm;42968;52.094;4.328;2023-02-04T08:24:59;69.00;46.64;79.08;;
57092;Laerm;42968;52.094;4.328;2023-02-04T08:27:24;68.37;47.59;78.75;;
57092;Laerm;42968;52.094;4.328;2023-02-04T08:29:49;66.66;43.94;76.97;;
57092;Laerm;42968;52.094;4.328;2023-02-04T08:32:15;66.11;48.20;78.31;;
57092;Laerm;42968;52.094;4.328;2023-02-04T08:34:40;65.75;48.21;78.39;;
57092;Laerm;42968;52.094;4.328;2023-02-04T08:37:05;67.04;48.90;86.23;;
57092;Laerm;42968;52.094;4.328;2023-02-04T08:39:31;69.22;46.80;78.63;;
57092;Laerm;42968;52.094;4.328;2023-02-04T08:41:57;67.69;46.05;76.99;;
57092;Laerm;42968;52.094;4.328;2023-02-04T08:44:22;68.82;51.89;75.48;;
57092;Laerm;42968;52.094;4.328;2023-02-04T08:46:47;68.90;52.26;78.47;;
57092;Laerm;42968;52.094;4.328;2023-02-04T08:49:13;67.55;46.82;76.60;;
57092;Laerm;42968;52.094;4.328;2023-02-04T08:51:38;68.24;48.54;76.47;;
57092;Laerm;42968;52.094;4.328;2023-02-04T08:54:03;68.17;48.23;77.11;;
57092;Laerm;42968;52.094;4.328;2023-02-04T08:56:28;69.13;48.07;78.04;;
57092;Laerm;42968;52.094;4.328;2023-02-04T08:58:55;68.75;46.43;82.67;;
57092;Laerm;42968;52.094;4.328;2023-02-04T09:01:20;69.15;47.12;80.65;;
57092;Laerm;42968;52.094;4.328;2023-02-04T09:03:45;67.89;50.99;77.55;;
57092;Laerm;42968;52.094;4.328;2023-02-04T09:06:13;69.69;50.57;77.25;;
57092;Laerm;42968;52.094;4.328;2023-02-04T09:08:38;68.43;50.82;77.62;;
57092;Laerm;42968;52.094;4.328;2023-02-04T09:11:03;69.47;51.43;77.56;;
57092;Laerm;42968;52.094;4.328;2023-02-04T09:13:29;68.32;49.49;76.10;;
57092;Laerm;42968;52.094;4.328;2023-02-04T09:15:54;69.79;46.23;81.73;;
57092;Laerm;42968;52.094;4.328;2023-02-04T09:18:19;69.47;48.66;76.93;;
57092;Laerm;42968;52.094;4.328;2023-02-04T09:20:47;70.35;52.39;77.48;;
57092;Laerm;42968;52.094;4.328;2023-02-04T09:23:12;70.16;56.11;78.06;;
57092;Laerm;42968;52.094;4.328;2023-02-04T09:25:38;66.18;46.84;76.56;;
57092;Laerm;42968;52.094;4.328;2023-02-04T09:28:04;69.77;45.75;80.62;;
57092;Laerm;42968;52.094;4.328;2023-02-04T09:30:29;69.74;51.63;79.19;;
57092;Laerm;42968;52.094;4.328;2023-02-04T09:32:54;69.25;48.34;77.31;;
57092;Laerm;42968;52.094;4.328;2023-02-04T09:35:19;69.01;49.04;77.25;;
57092;Laerm;42968;52.094;4.328;2023-02-04T09:37:45;68.60;51.10;78.07;;
57092;Laerm;42968;52.094;4.328;2023-02-04T09:40:14;70.36;54.31;80.35;;
57092;Laerm;42968;52.094;4.328;2023-02-04T09:42:41;69.15;50.31;78.15;;
57092;Laerm;42968;52.094;4.328;2023-02-04T09:45:08;69.24;51.35;80.81;;
57092;Laerm;42968;52.094;4.328;2023-02-04T09:47:34;69.98;51.48;80.08;;
57092;Laerm;42968;52.094;4.328;2023-02-04T09:50:00;68.89;52.17;79.30;;
57092;Laerm;42968;52.094;4.328;2023-02-04T09:52:25;69.64;49.45;80.70;;
57092;Laerm;42968;52.094;4.328;2023-02-04T09:54:51;70.46;51.32;80.90;;
57092;Laerm;42968;52.094;4.328;2023-02-04T09:57:18;69.67;49.29;78.51;;
57092;Laerm;42968;52.094;4.328;2023-02-04T09:59:43;70.13;48.15;79.01;;
57092;Laerm;42968;52.094;4.328;2023-02-04T10:02:13;68.84;47.79;78.62;;
57092;Laerm;42968;52.094;4.328;2023-02-04T10:04:43;70.41;51.03;82.18;;
57092;Laerm;42968;52.094;4.328;2023-02-04T10:07:09;68.43;47.20;77.31;;
57092;Laerm;42968;52.094;4.328;2023-02-04T10:09:36;69.19;49.33;77.41;;
57092;Laerm;42968;52.094;4.328;2023-02-04T10:12:01;69.76;46.69;82.39;;
57092;Laerm;42968;52.094;4.328;2023-02-04T10:14:27;69.99;47.20;80.11;;
57092;Laerm;42968;52.094;4.328;2023-02-04T10:16:53;70.28;55.91;77.63;;
57092;Laerm;42968;52.094;4.328;2023-02-04T10:19:19;69.94;48.98;77.99;;
57092;Laerm;42968;52.094;4.328;2023-02-04T10:21:45;71.19;53.93;79.26;;
57092;Laerm;42968;52.094;4.328;2023-02-04T10:24:14;70.48;48.31;79.10;;
57092;Laerm;42968;52.094;4.328;2023-02-04T10:26:40;70.19;58.22;77.05;;
57092;Laerm;42968;52.094;4.328;2023-02-04T10:29:07;70.91;53.36;77.13;;
57092;Laerm;42968;52.094;4.328;2023-02-04T10:31:37;69.29;54.96;78.11;;
57092;Laerm;42968;52.094;4.328;2023-02-04T10:34:10;67.57;47.57;76.39;;
57092;Laerm;42968;52.094;4.328;2023-02-04T10:36:36;68.90;55.65;79.48;;
57092;Laerm;42968;52.094;4.328;2023-02-04T10:39:02;69.66;53.15;78.16;;
57092;Laerm;42968;52.094;4.328;2023-02-04T10:41:28;68.76;48.45;80.62;;
57092;Laerm;42968;52.094;4.328;2023-02-04T10:44:06;70.42;57.14;78.29;;
57092;Laerm;42968;52.094;4.328;2023-02-04T10:46:31;70.08;55.94;85.41;;
57092;Laerm;42968;52.094;4.328;2023-02-04T10:48:57;70.55;49.07;80.09;;
57092;Laerm;42968;52.094;4.328;2023-02-04T10:51:22;69.66;53.42;77.92;;
57092;Laerm;42968;52.094;4.328;2023-02-04T10:53:48;70.19;59.75;83.99;;
57092;Laerm;42968;52.094;4.328;2023-02-04T10:56:32;70.15;54.62;78.69;;
57092;Laerm;42968;52.094;4.328;2023-02-04T10:58:57;70.45;50.68;78.83;;
57092;Laerm;42968;52.094;4.328;2023-02-04T11:01:23;71.19;51.59;78.87;;
57092;Laerm;42968;52.094;4.328;2023-02-04T11:03:50;69.68;48.73;77.93;;
57092;Laerm;42968;52.094;4.328;2023-02-04T11:06:18;69.39;51.39;76.86;;
57092;Laerm;42968;52.094;4.328;2023-02-04T11:08:44;70.47;53.40;80.75;;
57092;Laerm;42968;52.094;4.328;2023-02-04T11:11:14;70.89;58.28;77.75;;
57092;Laerm;42968;52.094;4.328;2023-02-04T11:13:45;73.14;48.84;83.87;;
57092;Laerm;42968;52.094;4.328;2023-02-04T11:16:25;69.28;48.54;77.49;;
57092;Laerm;42968;52.094;4.328;2023-02-04T11:18:58;71.19;54.87;78.61;;
57092;Laerm;42968;52.094;4.328;2023-02-04T11:23:50;73.52;50.15;80.99;;
57092;Laerm;42968;52.094;4.328;2023-02-04T11:29:31;71.80;56.09;80.20;;
57092;Laerm;42968;52.094;4.328;2023-02-04T11:32:03;72.37;55.45;80.55;;
57092;Laerm;42968;52.094;4.328;2023-02-04T11:34:29;72.29;51.19;82.91;;
57092;Laerm;42968;52.094;4.328;2023-02-04T11:37:00;71.43;57.76;79.18;;
57092;Laerm;42968;52.094;4.328;2023-02-04T11:39:38;74.51;55.13;83.46;;
57092;Laerm;42968;52.094;4.328;2023-02-04T11:42:29;71.62;51.33;79.07;;
57092;Laerm;42968;52.094;4.328;2023-02-04T11:44:52;72.18;56.01;81.11;;
57092;Laerm;42968;52.094;4.328;2023-02-04T11:47:19;73.69;58.22;80.99;;
57092;Laerm;42968;52.094;4.328;2023-02-04T11:49:45;73.72;56.17;80.56;;
57092;Laerm;42968;52.094;4.328;2023-02-04T11:52:16;72.28;52.37;83.78;;
57092;Laerm;42968;52.094;4.328;2023-02-04T11:54:41;71.89;51.30;79.00;;
57092;Laerm;42968;52.094;4.328;2023-02-04T11:57:09;71.72;52.08;78.88;;
57092;Laerm;42968;52.094;4.328;2023-02-04T11:59:34;73.40;52.71;81.05;;
57092;Laerm;42968;52.094;4.328;2023-02-04T12:02:04;72.06;53.66;80.90;;
57092;Laerm;42968;52.094;4.328;2023-02-04T12:04:29;72.35;49.55;84.49;;
57092;Laerm;42968;52.094;4.328;2023-02-04T12:06:58;71.90;54.15;79.66;;
57092;Laerm;42968;52.094;4.328;2023-02-04T12:09:25;71.41;54.93;80.26;;
57092;Laerm;42968;52.094;4.328;2023-02-04T12:11:53;71.16;56.95;80.43;;
57092;Laerm;42968;52.094;4.328;2023-02-04T12:14:18;70.46;53.58;79.96;;
57092;Laerm;42968;52.094;4.328;2023-02-04T12:16:48;72.06;55.70;78.66;;
57092;Laerm;42968;52.094;4.328;2023-02-04T12:19:15;71.10;48.67;78.44;;
57092;Laerm;42968;52.094;4.328;2023-02-04T12:21:41;73.41;50.57;80.30;;
57092;Laerm;42968;52.094;4.328;2023-02-04T12:24:06;70.61;50.29;80.74;;
57092;Laerm;42968;52.094;4.328;2023-02-04T12:26:31;71.49;53.40;80.09;;
57092;Laerm;42968;52.094;4.328;2023-02-04T12:28:57;71.49;47.83;79.36;;
57092;Laerm;42968;52.094;4.328;2023-02-04T12:31:25;72.36;60.15;79.09;;
57092;Laerm;42968;52.094;4.328;2023-02-04T12:33:50;74.01;46.35;79.95;;
57092;Laerm;42968;52.094;4.328;2023-02-04T12:36:18;71.67;56.13;81.93;;
57092;Laerm;42968;52.094;4.328;2023-02-04T12:38:43;72.01;55.03;79.23;;
57092;Laerm;42968;52.094;4.328;2023-02-04T12:41:08;73.17;50.91;80.74;;
57092;Laerm;42968;52.094;4.328;2023-02-04T12:43:34;74.15;56.89;87.29;;
57092;Laerm;42968;52.094;4.328;2023-02-04T12:45:59;71.95;52.60;84.52;;
57092;Laerm;42968;52.094;4.328;2023-02-04T12:48:24;71.28;51.22;81.54;;
57092;Laerm;42968;52.094;4.328;2023-02-04T12:50:50;71.61;57.83;80.83;;
57092;Laerm;42968;52.094;4.328;2023-02-04T12:53:15;72.31;48.20;80.34;;
57092;Laerm;42968;52.094;4.328;2023-02-04T12:55:43;72.09;52.42;81.50;;
57092;Laerm;42968;52.094;4.328;2023-02-04T12:58:08;73.40;47.90;84.37;;
57092;Laerm;42968;52.094;4.328;2023-02-04T13:00:33;72.67;56.26;82.70;;
57092;Laerm;42968;52.094;4.328;2023-02-04T13:02:59;71.76;50.25;79.30;;
57092;Laerm;42968;52.094;4.328;2023-02-04T13:05:24;71.31;53.02;78.31;;
57092;Laerm;42968;52.094;4.328;2023-02-04T13:07:49;69.57;49.94;76.62;;
57092;Laerm;42968;52.094;4.328;2023-02-04T13:10:15;70.96;54.87;80.19;;
57092;Laerm;42968;52.094;4.328;2023-02-04T13:12:40;73.35;55.33;81.56;;
57092;Laerm;42968;52.094;4.328;2023-02-04T13:15:06;70.94;54.02;79.14;;
57092;Laerm;42968;52.094;4.328;2023-02-04T13:17:31;70.78;54.15;77.87;;
57092;Laerm;42968;52.094;4.328;2023-02-04T13:19:57;70.52;48.55;78.04;;
57092;Laerm;42968;52.094;4.328;2023-02-04T13:22:24;71.88;46.76;79.16;;
57092;Laerm;42968;52.094;4.328;2023-02-04T13:24:49;69.93;47.70;78.71;;
57092;Laerm;42968;52.094;4.328;2023-02-04T13:27:15;72.60;47.16;80.79;;
57092;Laerm;42968;52.094;4.328;2023-02-04T13:29:40;70.88;50.01;86.73;;
57092;Laerm;42968;52.094;4.328;2023-02-04T13:32:05;72.01;51.09;90.44;;
57092;Laerm;42968;52.094;4.328;2023-02-04T13:34:31;72.21;50.00;81.05;;
57092;Laerm;42968;52.094;4.328;2023-02-04T13:36:56;70.68;52.95;77.50;;
57092;Laerm;42968;52.094;4.328;2023-02-04T13:39:22;72.24;48.00;80.05;;
57092;Laerm;42968;52.094;4.328;2023-02-04T13:41:47;72.17;53.39;80.36;;
57092;Laerm;42968;52.094;4.328;2023-02-04T13:44:13;71.49;56.32;78.49;;
57092;Laerm;42968;52.094;4.328;2023-02-04T13:46:38;72.95;53.87;81.82;;